CPX796 Details

Departure: Guarulhos International Airport (SBGR)
Arrival: Miami International Airport (KMIA) at N/A
Route: UKBE1C UKBEV ASTOB UM417 OBGAT UZ21 VUMPI UL795 URSUS FLIPR6
Notes:


Current Weather Information
SBGR 251100Z 11005KT 9999 SCT011 BKN025 14/12 Q1028
KMIA 251053Z 00000KT 10SM FEW025 SCT250 27/24 A2991 RMK AO2 SLP129 CB DSNT SW T02670244